createdAt,value
2018-01-11T00:00:54.571Z,80.20
2018-01-11T00:03:22.025Z,80.38
2018-01-11T00:05:49.495Z,80.84
2018-01-11T00:08:17.071Z,80.98
2018-01-11T00:10:44.610Z,81.34
2018-01-11T00:13:12.187Z,81.29
2018-01-11T00:15:39.725Z,81.26
2018-01-11T00:18:07.185Z,81.08
2018-01-11T00:20:34.680Z,80.93
2018-01-11T00:23:02.138Z,80.84
2018-01-11T00:25:29.620Z,80.84
2018-01-11T00:27:57.149Z,80.76
2018-01-11T00:30:24.626Z,80.77
2018-01-11T00:32:52.120Z,80.85
2018-01-11T00:35:19.587Z,81.07
2018-01-11T00:37:47.153Z,81.34
2018-01-11T00:40:14.739Z,81.23
2018-01-11T00:42:42.200Z,80.92
2018-01-11T00:45:09.688Z,81.29
2018-01-11T00:47:37.205Z,81.60
2018-01-11T00:50:04.697Z,81.43
2018-01-11T00:52:32.204Z,81.38
2018-01-11T00:54:59.678Z,81.86
2018-01-11T00:57:27.133Z,82.08
2018-01-11T00:59:54.744Z,82.20
2018-01-11T01:02:22.203Z,82.13
2018-01-11T01:04:49.698Z,82.14
2018-01-11T01:07:17.178Z,82.07
2018-01-11T01:09:44.642Z,82.21
2018-01-11T01:12:12.128Z,82.35
2018-01-11T01:14:39.636Z,82.32
2018-01-11T01:17:07.169Z,82.36
2018-01-11T01:19:34.742Z,82.37
2018-01-11T01:22:02.216Z,82.55
2018-01-11T01:24:29.710Z,82.59
2018-01-11T01:26:57.227Z,82.59
2018-01-11T01:29:24.765Z,82.71
2018-01-11T01:31:52.453Z,83.20
2018-01-11T01:34:19.945Z,83.37
2018-01-11T01:36:47.444Z,83.57
2018-01-11T01:39:15.807Z,83.47
2018-01-11T01:41:43.288Z,83.27
2018-01-11T01:44:10.822Z,83.09
2018-01-11T01:46:38.316Z,83.05
2018-01-11T01:49:05.791Z,82.91
2018-01-11T01:51:33.348Z,83.01
2018-01-11T01:54:01.690Z,82.93
2018-01-11T01:56:29.144Z,82.92
2018-01-11T01:58:56.611Z,82.94
2018-01-11T02:01:24.086Z,82.87
2018-01-11T02:03:51.584Z,83.03
2018-01-11T02:06:19.049Z,82.85
2018-01-11T02:08:46.829Z,82.69
2018-01-11T02:11:14.293Z,82.73
2018-01-11T02:13:41.787Z,82.66
2018-01-11T02:16:09.247Z,82.79
2018-01-11T02:18:36.740Z,82.89
2018-01-11T02:21:04.215Z,83.20
2018-01-11T02:23:31.701Z,83.21
2018-01-11T02:25:59.214Z,83.07
2018-01-11T02:28:26.728Z,83.00
2018-01-11T02:30:54.225Z,82.89
2018-01-11T02:33:22.737Z,82.72
2018-01-11T02:35:50.176Z,82.50
2018-01-11T02:38:18.620Z,82.33
2018-01-11T02:41:05.289Z,82.26
2018-01-11T02:43:32.785Z,82.27
2018-01-11T02:46:00.247Z,82.22
2018-01-11T02:48:27.796Z,82.12
2018-01-11T02:50:55.371Z,82.26
2018-01-11T02:53:23.090Z,82.22
2018-01-11T02:55:50.566Z,82.24
2018-01-11T02:58:18.040Z,82.38
2018-01-11T03:00:46.255Z,82.45
2018-01-11T03:03:13.720Z,82.39
2018-01-11T03:05:41.221Z,82.33
2018-01-11T03:08:08.735Z,82.41
2018-01-11T03:10:36.219Z,82.28
2018-01-11T03:13:03.778Z,82.42
2018-01-11T03:15:31.303Z,82.42
2018-01-11T03:17:58.815Z,82.54
2018-01-11T03:20:26.351Z,82.65
2018-01-11T03:22:53.829Z,82.82
2018-01-11T03:25:21.297Z,82.59
2018-01-11T03:27:48.798Z,82.47
2018-01-11T03:30:16.279Z,82.77
2018-01-11T03:32:43.728Z,83.06
2018-01-11T03:35:11.182Z,83.22
2018-01-11T03:37:38.639Z,83.50
2018-01-11T03:40:06.136Z,83.62
2018-01-11T03:42:33.592Z,83.47
2018-01-11T03:45:01.653Z,83.58
2018-01-11T03:47:29.356Z,83.41
2018-01-11T03:49:56.840Z,83.39
2018-01-11T03:52:24.310Z,83.37
2018-01-11T03:54:51.781Z,83.39
2018-01-11T03:57:19.244Z,83.10
2018-01-11T03:59:46.727Z,83.07
2018-01-11T04:02:15.097Z,82.92
2018-01-11T04:04:42.557Z,83.21
2018-01-11T04:07:10.055Z,83.80
2018-01-11T04:09:38.155Z,83.83
2018-01-11T04:12:05.598Z,83.92
2018-01-11T04:14:33.069Z,84.23
2018-01-11T04:17:00.608Z,84.37
2018-01-11T04:19:28.124Z,84.52
2018-01-11T04:21:55.685Z,84.24
2018-01-11T04:24:23.193Z,84.23
2018-01-11T04:26:51.615Z,84.00
2018-01-11T04:29:19.101Z,84.12
2018-01-11T04:31:46.641Z,84.37
2018-01-11T04:34:14.095Z,84.61
2018-01-11T04:36:41.602Z,84.49
2018-01-11T04:39:09.208Z,84.49
2018-01-11T04:41:36.727Z,84.45
2018-01-11T04:44:04.203Z,84.55
2018-01-11T04:46:31.707Z,84.75
2018-01-11T04:48:59.190Z,84.78
2018-01-11T04:51:26.669Z,84.80
2018-01-11T04:53:54.141Z,84.81
2018-01-11T04:56:21.664Z,84.94
2018-01-11T04:58:49.163Z,84.90
2018-01-11T05:01:16.639Z,85.06
2018-01-11T05:03:44.114Z,85.17
2018-01-11T05:06:11.609Z,85.26
2018-01-11T05:08:39.089Z,85.19
2018-01-11T05:11:06.588Z,85.08
2018-01-11T05:13:34.073Z,84.68
2018-01-11T05:16:01.597Z,84.50
2018-01-11T05:18:29.065Z,84.39
2018-01-11T05:20:56.555Z,84.18
2018-01-11T05:23:24.018Z,84.17
2018-01-11T05:25:51.493Z,84.03
2018-01-11T05:28:18.947Z,83.95
2018-01-11T05:30:46.435Z,83.89
2018-01-11T05:33:13.913Z,84.03
2018-01-11T05:35:41.458Z,84.15
2018-01-11T05:38:08.944Z,84.10
2018-01-11T05:40:36.396Z,84.03
2018-01-11T05:43:03.893Z,84.02
2018-01-11T05:45:31.410Z,84.25
2018-01-11T05:47:58.895Z,84.28
2018-01-11T05:50:26.456Z,84.33
2018-01-11T05:52:53.970Z,84.16
2018-01-11T05:55:21.468Z,84.05
2018-01-11T05:57:49.046Z,83.93
2018-01-11T06:00:16.585Z,83.96
2018-01-11T06:02:44.425Z,84.19
2018-01-11T06:05:11.940Z,84.36
2018-01-11T06:07:39.454Z,84.24
2018-01-11T06:10:06.966Z,84.32
2018-01-11T06:12:34.452Z,84.52
2018-01-11T06:15:01.926Z,84.51
2018-01-11T06:17:29.445Z,84.54
2018-01-11T06:19:56.925Z,84.46
2018-01-11T06:22:24.452Z,84.40
2018-01-11T06:24:52.760Z,84.46
2018-01-11T06:27:20.948Z,84.49
2018-01-11T06:29:48.529Z,84.36
2018-01-11T06:32:16.021Z,84.32
2018-01-11T06:34:43.530Z,84.19
2018-01-11T06:37:11.023Z,84.01
2018-01-11T06:39:39.037Z,83.88
2018-01-11T06:42:20.709Z,83.70
2018-01-11T06:44:48.221Z,83.62
2018-01-11T06:47:16.514Z,83.53
2018-01-11T06:49:44.135Z,83.51
2018-01-11T06:52:11.634Z,83.48
2018-01-11T06:54:39.198Z,83.46
2018-01-11T06:57:06.734Z,83.33
2018-01-11T06:59:34.196Z,83.01
2018-01-11T07:02:01.676Z,83.31
2018-01-11T07:04:29.298Z,83.51
2018-01-11T07:06:56.857Z,83.41
2018-01-11T07:09:24.424Z,83.34
2018-01-11T07:11:52.073Z,83.15
2018-01-11T07:14:20.104Z,82.85
2018-01-11T07:16:49.425Z,82.85
2018-01-11T07:19:17.762Z,82.76
2018-01-11T07:24:39.053Z,82.99
2018-01-11T07:27:06.979Z,83.14
2018-01-11T07:29:34.498Z,83.20
2018-01-11T07:32:02.300Z,83.22
2018-01-11T07:34:34.273Z,83.32
2018-01-11T07:37:01.984Z,83.28
2018-01-11T07:39:29.679Z,83.32
2018-01-11T07:41:57.413Z,83.46
2018-01-11T07:44:24.882Z,83.38
2018-01-11T07:46:52.665Z,83.31
2018-01-11T07:49:20.251Z,82.91
2018-01-11T07:51:47.773Z,83.48
2018-01-11T07:54:15.517Z,83.33
2018-01-11T07:56:43.107Z,82.53
2018-01-11T07:59:10.743Z,81.86
2018-01-11T08:01:38.413Z,80.39
2018-01-11T08:04:05.970Z,80.18
2018-01-11T08:06:33.513Z,80.33
2018-01-11T08:09:01.115Z,80.19
2018-01-11T08:11:28.672Z,80.66
2018-01-11T08:13:56.242Z,80.44
2018-01-11T08:16:23.795Z,80.33
2018-01-11T08:18:51.384Z,80.49
2018-01-11T08:21:18.922Z,80.76
2018-01-11T08:23:47.401Z,81.10
2018-01-11T08:26:14.863Z,81.63
2018-01-11T08:28:42.423Z,81.35
2018-01-11T08:31:09.929Z,81.62
2018-01-11T08:33:37.544Z,81.80
2018-01-11T08:36:05.340Z,81.72
2018-01-11T08:38:33.719Z,82.05
2018-01-11T08:41:01.239Z,82.04
2018-01-11T08:43:28.756Z,82.01
2018-01-11T08:45:56.329Z,81.98
2018-01-11T08:48:24.851Z,82.22
2018-01-11T08:50:52.362Z,82.29
2018-01-11T08:53:20.109Z,82.24
2018-01-11T08:55:47.761Z,82.14
2018-01-11T08:58:15.290Z,82.26
2018-01-11T09:00:42.887Z,82.13
2018-01-11T09:03:10.445Z,82.25
2018-01-11T09:05:38.652Z,82.04
2018-01-11T09:08:07.833Z,82.21
2018-01-11T09:10:35.468Z,82.31
2018-01-11T09:13:03.756Z,82.36
2018-01-11T09:15:31.988Z,82.41
2018-01-11T09:17:59.501Z,82.42
2018-01-11T09:20:27.015Z,82.44
2018-01-11T09:22:54.491Z,82.64
2018-01-11T09:25:22.087Z,82.67
2018-01-11T09:27:50.544Z,82.70
2018-01-11T09:30:18.051Z,82.74
2018-01-11T09:32:50.466Z,82.90
2018-01-11T09:35:19.969Z,82.85
2018-01-11T09:37:47.598Z,82.83
2018-01-11T09:40:15.203Z,82.69
2018-01-11T09:42:43.131Z,82.75
2018-01-11T09:45:11.524Z,82.64
2018-01-11T09:47:40.754Z,82.51
2018-01-11T09:50:08.416Z,82.50
2018-01-11T09:52:36.923Z,82.57
2018-01-11T09:55:04.468Z,82.38
2018-01-11T09:57:32.136Z,82.33
2018-01-11T10:00:00.773Z,82.32
2018-01-11T10:02:28.514Z,82.58
2018-01-11T10:04:56.130Z,82.56
2018-01-11T10:07:23.916Z,82.50
2018-01-11T10:09:51.422Z,82.32
2018-01-11T10:12:19.025Z,82.42
2018-01-11T10:14:47.403Z,82.50
2018-01-11T10:17:14.979Z,82.60
2018-01-11T10:19:43.489Z,82.62
2018-01-11T10:22:10.986Z,82.63
2018-01-11T10:24:38.663Z,82.45
2018-01-11T10:27:06.371Z,82.39
2018-01-11T10:29:34.778Z,82.35
2018-01-11T10:32:02.473Z,82.12
2018-01-11T10:34:32.442Z,82.02
2018-01-11T10:37:01.054Z,81.96
2018-01-11T10:39:28.633Z,81.78
2018-01-11T10:41:56.955Z,81.73
2018-01-11T10:44:24.629Z,81.62
2018-01-11T10:46:52.316Z,81.73
2018-01-11T10:49:19.934Z,81.54
2018-01-11T10:51:47.590Z,81.56
2018-01-11T10:54:15.312Z,81.39
2018-01-11T10:56:42.893Z,81.15
2018-01-11T10:59:10.578Z,80.64
2018-01-11T11:01:43.926Z,80.32
2018-01-11T11:04:11.491Z,79.40
2018-01-11T11:06:39.172Z,79.06
2018-01-11T11:09:06.755Z,79.55
2018-01-11T11:11:36.226Z,78.58
2018-01-11T11:14:03.832Z,78.63
2018-01-11T11:16:31.468Z,78.36
2018-01-11T11:18:59.112Z,78.40
2018-01-11T11:21:46.445Z,77.51
2018-01-11T11:24:13.965Z,77.11
2018-01-11T11:26:41.914Z,77.31
2018-01-11T11:29:09.460Z,77.93
2018-01-11T11:31:37.023Z,77.81
2018-01-11T11:34:04.504Z,78.21
2018-01-11T11:36:31.975Z,78.65
2018-01-11T11:38:59.491Z,78.70
2018-01-11T11:41:31.960Z,79.22
2018-01-11T11:44:00.336Z,79.49
2018-01-11T11:46:27.871Z,78.89
2018-01-11T11:48:55.349Z,78.49
2018-01-11T11:51:28.183Z,76.32
2018-01-11T11:53:55.668Z,75.16
2018-01-11T11:56:23.250Z,74.07
2018-01-11T11:58:51.488Z,73.86
2018-01-11T12:01:19.336Z,74.60
2018-01-11T12:03:46.870Z,75.57
2018-01-11T12:06:14.631Z,75.88
2018-01-11T12:08:42.146Z,76.33
2018-01-11T12:11:09.720Z,76.38
2018-01-11T12:13:37.187Z,76.29
2018-01-11T12:16:04.715Z,76.37
2018-01-11T12:18:33.141Z,76.64
2018-01-11T12:21:00.920Z,77.15
2018-01-11T12:23:28.790Z,77.87
2018-01-11T12:25:56.362Z,78.41
2018-01-11T12:28:23.900Z,78.64
2018-01-11T12:30:51.584Z,79.10
2018-01-11T12:33:19.151Z,79.67
2018-01-11T12:35:46.883Z,79.64
2018-01-11T12:38:14.634Z,79.89
2018-01-11T12:40:42.114Z,80.17
2018-01-11T12:43:09.941Z,80.22
2018-01-11T12:45:38.564Z,80.36
2018-01-11T12:48:06.032Z,80.33
2018-01-11T12:50:34.580Z,80.70
2018-01-11T12:53:02.342Z,80.50
2018-01-11T12:55:29.984Z,80.52
2018-01-11T12:57:58.361Z,80.67
2018-01-11T13:00:26.218Z,80.97
2018-01-11T13:02:53.959Z,81.03
2018-01-11T13:05:21.835Z,81.21
2018-01-11T13:07:49.401Z,81.45
2018-01-11T13:10:16.873Z,81.49
2018-01-11T13:12:45.315Z,82.00
2018-01-11T13:15:12.796Z,81.69
2018-01-11T13:17:40.261Z,81.97
2018-01-11T13:20:07.882Z,81.91
2018-01-11T13:22:36.197Z,81.87
2018-01-11T13:25:03.754Z,81.59
2018-01-11T13:27:31.328Z,81.70
2018-01-11T13:29:58.987Z,81.88
2018-01-11T13:32:26.711Z,82.19
2018-01-11T13:34:54.777Z,82.37
2018-01-11T13:37:22.834Z,82.67
2018-01-11T13:39:50.294Z,83.23
2018-01-11T13:42:17.781Z,82.80
2018-01-11T13:44:47.029Z,82.84
2018-01-11T13:47:14.556Z,83.01
2018-01-11T13:49:42.874Z,82.91
2018-01-11T13:52:10.372Z,82.89
2018-01-11T13:54:37.969Z,83.15
2018-01-11T13:57:05.795Z,82.85
2018-01-11T13:59:35.083Z,82.75
2018-01-11T14:02:03.456Z,82.60
2018-01-11T14:04:31.194Z,82.57
2018-01-11T14:06:59.099Z,83.03
2018-01-11T14:09:27.357Z,83.33
2018-01-11T14:12:18.567Z,83.56
2018-01-11T14:14:46.911Z,83.80
2018-01-11T14:17:15.724Z,83.92
2018-01-11T14:19:43.191Z,84.04
2018-01-11T14:22:10.776Z,84.36
2018-01-11T14:24:38.619Z,84.47
2018-01-11T14:27:08.888Z,84.26
2018-01-11T14:29:37.806Z,84.47
2018-01-11T14:32:06.073Z,84.65
2018-01-11T14:34:33.792Z,84.71
2018-01-11T14:37:02.563Z,84.76
2018-01-11T14:39:31.266Z,84.85
2018-01-11T14:42:18.028Z,84.81
2018-01-11T14:44:45.634Z,84.78
2018-01-11T14:47:13.465Z,84.95
2018-01-11T14:49:41.021Z,85.01
2018-01-11T14:52:09.098Z,84.92
2018-01-11T14:54:36.954Z,84.99
2018-01-11T14:57:04.706Z,85.02
2018-01-11T14:59:33.676Z,84.89
2018-01-11T15:02:07.351Z,84.92
2018-01-11T15:04:35.669Z,84.99
2018-01-11T15:07:04.440Z,84.97
2018-01-11T15:09:32.205Z,85.20
2018-01-11T15:11:59.970Z,85.47
2018-01-11T15:14:27.687Z,85.44
2018-01-11T15:16:55.251Z,85.38
2018-01-11T15:19:23.066Z,85.21
2018-01-11T15:21:52.010Z,84.92
2018-01-11T15:24:19.863Z,85.26
2018-01-11T15:26:47.570Z,84.97
2018-01-11T15:29:15.170Z,85.22
2018-01-11T15:31:43.380Z,85.29
2018-01-11T15:34:13.915Z,85.31
2018-01-11T15:36:45.411Z,84.91
2018-01-11T15:39:17.102Z,84.77
2018-01-11T15:41:45.323Z,84.85
2018-01-11T15:44:13.135Z,84.92
2018-01-11T15:46:40.691Z,84.85
2018-01-11T15:49:08.206Z,84.86
2018-01-11T15:51:35.821Z,85.21
2018-01-11T15:54:05.687Z,85.38
2018-01-11T15:56:33.206Z,85.15
2018-01-11T15:59:00.751Z,85.28
2018-01-11T16:01:28.590Z,85.00
2018-01-11T16:03:56.547Z,84.70
2018-01-11T16:06:24.125Z,84.56
2018-01-11T16:08:53.084Z,84.47
2018-01-11T16:11:21.455Z,84.78
2018-01-11T16:13:50.828Z,84.70
2018-01-11T16:19:04.252Z,85.18
2018-01-11T16:21:41.538Z,85.17
2018-01-11T16:24:10.156Z,85.46
2018-01-11T16:26:37.659Z,85.61
2018-01-11T16:29:06.063Z,85.46
2018-01-11T16:31:33.688Z,85.67
2018-01-11T16:34:01.525Z,85.49
2018-01-11T16:36:29.951Z,85.20
2018-01-11T16:38:57.533Z,85.31
2018-01-11T16:41:25.097Z,85.29
2018-01-11T16:43:52.740Z,85.33
2018-01-11T16:46:20.636Z,85.35
2018-01-11T16:48:48.404Z,85.31
2018-01-11T16:51:15.920Z,85.51
2018-01-11T16:53:44.393Z,85.48
2018-01-11T16:56:12.143Z,85.36
2018-01-11T16:58:39.694Z,85.36
2018-01-11T17:01:07.568Z,85.14
2018-01-11T17:03:35.295Z,85.26
2018-01-11T17:06:02.900Z,85.58
2018-01-11T17:08:30.411Z,86.12
2018-01-11T17:10:59.009Z,86.11
2018-01-11T17:13:26.543Z,86.05
2018-01-11T17:15:54.119Z,86.01
2018-01-11T17:18:21.631Z,85.61
2018-01-11T17:20:50.018Z,85.66
2018-01-11T17:23:17.533Z,85.92
2018-01-11T17:25:45.111Z,86.08
2018-01-11T17:28:12.681Z,86.33
2018-01-11T17:30:40.212Z,86.94
2018-01-11T17:33:07.790Z,86.93
2018-01-11T17:35:35.295Z,86.75
2018-01-11T17:38:02.856Z,86.60
2018-01-11T17:40:30.342Z,86.39
2018-01-11T17:42:57.844Z,86.57
2018-01-11T17:45:25.398Z,86.88
2018-01-11T17:47:52.963Z,87.37
2018-01-11T17:50:20.749Z,87.10
2018-01-11T17:52:48.351Z,87.02
2018-01-11T17:55:16.863Z,86.74
2018-01-11T17:57:44.452Z,86.48
2018-01-11T18:00:12.151Z,86.67
2018-01-11T18:02:44.889Z,86.51
2018-01-11T18:05:12.692Z,86.77
2018-01-11T18:07:40.463Z,87.07
2018-01-11T18:10:07.990Z,87.33
2018-01-11T18:12:35.515Z,87.63
2018-01-11T18:15:03.157Z,87.70
2018-01-11T18:17:30.790Z,87.79
2018-01-11T18:19:58.299Z,87.88
2018-01-11T18:22:25.908Z,87.76
2018-01-11T18:24:54.556Z,87.44
2018-01-11T18:27:22.238Z,87.43
2018-01-11T18:29:49.722Z,87.36
2018-01-11T18:32:17.215Z,87.47
2018-01-11T18:34:45.755Z,87.50
2018-01-11T18:37:13.275Z,87.48
2018-01-11T18:39:41.019Z,87.81
2018-01-11T18:42:08.498Z,87.15
2018-01-11T18:44:36.119Z,86.82
2018-01-11T18:47:03.917Z,86.77
2018-01-11T18:49:31.426Z,86.92
2018-01-11T18:51:59.827Z,86.86
2018-01-11T18:54:27.405Z,86.79
2018-01-11T18:56:54.919Z,86.90
2018-01-11T18:59:22.416Z,87.19
2018-01-11T19:01:49.923Z,87.38
2018-01-11T19:04:17.638Z,86.94
2018-01-11T19:06:45.187Z,87.02
2018-01-11T19:09:12.790Z,87.09
2018-01-11T19:11:40.355Z,87.00
2018-01-11T19:14:08.179Z,87.02
2018-01-11T19:16:37.107Z,87.07
2018-01-11T19:19:05.295Z,87.30
2018-01-11T19:21:33.136Z,87.42
2018-01-11T19:24:01.053Z,87.51
2018-01-11T19:26:28.875Z,87.53
2018-01-11T19:28:56.657Z,87.45
2018-01-11T19:31:24.516Z,87.47
2018-01-11T19:33:52.511Z,87.46
2018-01-11T19:36:21.618Z,87.34
2018-01-11T19:38:49.721Z,87.24
2018-01-11T19:41:17.533Z,87.39
2018-01-11T19:43:45.105Z,87.63
2018-01-11T19:46:12.973Z,87.55
2018-01-11T19:48:40.536Z,87.45
2018-01-11T19:51:08.639Z,87.39
2018-01-11T19:53:36.272Z,87.44
2018-01-11T19:56:04.124Z,87.55
2018-01-11T19:58:31.694Z,87.23
2018-01-11T20:01:01.251Z,87.36
2018-01-11T20:03:29.021Z,87.38
2018-01-11T20:05:56.905Z,87.62
2018-01-11T20:08:26.088Z,87.54
2018-01-11T20:10:53.841Z,87.78
2018-01-11T20:13:21.573Z,88.15
2018-01-11T20:15:49.203Z,88.23
2018-01-11T20:18:16.806Z,88.30
2018-01-11T20:20:44.397Z,88.32
2018-01-11T20:23:12.202Z,88.25
2018-01-11T20:25:39.798Z,88.28
2018-01-11T20:28:07.453Z,88.22
2018-01-11T20:30:35.040Z,88.21
2018-01-11T20:33:02.764Z,88.26
2018-01-11T20:35:30.524Z,88.28
2018-01-11T20:37:58.219Z,88.20
2018-01-11T20:40:25.871Z,88.19
2018-01-11T20:42:53.441Z,88.29
2018-01-11T20:45:21.201Z,88.35
2018-01-11T20:47:48.656Z,88.49
2018-01-11T20:50:16.200Z,87.96
2018-01-11T20:52:44.035Z,87.62
2018-01-11T20:55:11.596Z,87.75
2018-01-11T20:57:39.293Z,87.71
2018-01-11T21:00:07.743Z,87.67
2018-01-11T21:02:35.532Z,87.69
2018-01-11T21:05:03.200Z,87.62
2018-01-11T21:07:31.136Z,87.74
2018-01-11T21:09:59.012Z,87.91
2018-01-11T21:12:26.578Z,87.74
2018-01-11T21:14:54.500Z,87.58
2018-01-11T21:17:21.997Z,87.42
2018-01-11T21:19:49.476Z,87.48
2018-01-11T21:22:17.061Z,87.34
2018-01-11T21:24:44.785Z,87.25
2018-01-11T21:27:12.915Z,86.66
2018-01-11T21:29:40.448Z,86.82
2018-01-11T21:32:08.421Z,87.01
2018-01-11T21:34:37.139Z,87.17
2018-01-11T21:37:04.767Z,87.24
2018-01-11T21:39:32.387Z,87.18
2018-01-11T21:41:59.940Z,87.13
2018-01-11T21:44:28.468Z,87.33
2018-01-11T21:46:56.100Z,87.49
2018-01-11T21:49:23.600Z,87.52
2018-01-11T21:51:51.132Z,87.58
2018-01-11T21:54:22.614Z,87.76
2018-01-11T21:56:51.036Z,87.68
2018-01-11T21:59:20.214Z,87.62
2018-01-11T22:01:47.822Z,87.41
2018-01-11T22:04:15.638Z,87.57
2018-01-11T22:06:43.530Z,87.83
2018-01-11T22:09:11.230Z,87.94
2018-01-11T22:11:39.527Z,87.86
2018-01-11T22:14:07.307Z,87.75
2018-01-11T22:16:36.093Z,87.64
2018-01-11T22:19:04.127Z,87.55
2018-01-11T22:21:32.167Z,87.61
2018-01-11T22:23:59.752Z,87.67
2018-01-11T22:26:27.246Z,87.76
2018-01-11T22:28:54.808Z,87.67
2018-01-11T22:31:22.567Z,87.90
2018-01-11T22:33:50.123Z,87.96
2018-01-11T22:36:18.007Z,87.73
2018-01-11T22:38:45.749Z,87.78
2018-01-11T22:41:14.178Z,87.80
2018-01-11T22:43:41.821Z,87.92
2018-01-11T22:46:09.368Z,88.08
2018-01-11T22:48:36.954Z,88.08
2018-01-11T22:51:04.914Z,88.11
2018-01-11T22:53:32.404Z,88.09
2018-01-11T22:56:01.162Z,88.15
2018-01-11T22:58:28.744Z,88.21
2018-01-11T23:00:56.264Z,88.12
2018-01-11T23:03:23.766Z,88.12
2018-01-11T23:05:51.263Z,88.02
2018-01-11T23:08:18.744Z,87.89
2018-01-11T23:10:46.473Z,87.69
2018-01-11T23:13:13.941Z,87.88
2018-01-11T23:15:41.618Z,87.88
2018-01-11T23:18:09.122Z,87.87
2018-01-11T23:20:36.666Z,87.69
2018-01-11T23:23:04.257Z,87.82
2018-01-11T23:25:31.770Z,87.86
2018-01-11T23:27:59.442Z,87.81
2018-01-11T23:30:27.063Z,87.87
2018-01-11T23:32:54.616Z,87.84
2018-01-11T23:35:22.180Z,87.90
2018-01-11T23:37:49.867Z,87.75
2018-01-11T23:40:17.368Z,87.71
2018-01-11T23:42:49.887Z,87.81
2018-01-11T23:45:17.422Z,87.88
2018-01-11T23:47:45.823Z,87.92
2018-01-11T23:50:14.696Z,87.85
2018-01-11T23:52:42.318Z,87.69
2018-01-11T23:55:09.791Z,87.68
2018-01-11T23:57:37.680Z,87.70
